createdAt,value
2022-10-21T00:01:43.224Z,584.03
2022-10-21T00:04:11.338Z,606.80
2022-10-21T00:06:43.246Z,597.72
2022-10-21T00:09:12.612Z,591.97
2022-10-21T00:11:43.259Z,607.70
2022-10-21T00:14:11.461Z,614.65
2022-10-21T00:16:40.819Z,583.30
2022-10-21T00:19:09.031Z,595.63
2022-10-21T00:21:37.972Z,604.25
2022-10-21T00:24:07.693Z,613.15
2022-10-21T00:26:38.554Z,652.58
2022-10-21T00:29:06.928Z,633.83
2022-10-21T00:31:36.315Z,558.85
2022-10-21T00:34:05.633Z,507.58
2022-10-21T00:36:35.028Z,521.92
2022-10-21T00:39:04.789Z,445.20
2022-10-21T00:41:35.489Z,482.67
2022-10-21T00:44:07.961Z,498.23
2022-10-21T00:46:43.422Z,498.88
2022-10-21T00:49:20.337Z,487.33
2022-10-21T00:51:55.638Z,441.55
2022-10-21T00:54:26.143Z,464.02
2022-10-21T00:56:59.914Z,490.63
2022-10-21T00:59:34.779Z,474.45
2022-10-21T01:02:04.506Z,467.15
2022-10-21T01:04:34.117Z,561.90
2022-10-21T01:07:05.671Z,567.58
2022-10-21T01:09:35.048Z,594.17
2022-10-21T01:12:17.988Z,579.90
2022-10-21T01:14:57.266Z,588.63
2022-10-21T01:17:45.149Z,586.60
2022-10-21T01:20:57.341Z,596.97
2022-10-21T01:24:13.399Z,472.58
2022-10-21T01:27:18.175Z,462.30
2022-10-21T01:30:30.791Z,494.65
2022-10-21T01:33:18.914Z,478.10
2022-10-21T01:35:54.423Z,500.35
2022-10-21T01:38:36.084Z,478.42
2022-10-21T01:41:15.176Z,528.45
2022-10-21T01:43:54.073Z,534.70
2022-10-21T01:46:29.611Z,533.25
2022-10-21T01:49:04.748Z,596.17
2022-10-21T01:51:37.762Z,611.05
2022-10-21T01:54:13.254Z,596.47
2022-10-21T01:56:46.773Z,578.10
2022-10-21T01:59:17.379Z,578.83
2022-10-21T02:01:51.364Z,578.83
2022-10-21T02:04:20.294Z,580.92
2022-10-21T02:06:49.728Z,574.67
2022-10-21T02:09:18.019Z,517.88
2022-10-21T02:11:51.367Z,505.40
2022-10-21T02:14:26.594Z,532.53
2022-10-21T02:17:00.559Z,531.17
2022-10-21T02:22:07.962Z,545.55
2022-10-21T02:24:43.919Z,515.17
2022-10-21T02:27:13.768Z,501.17
2022-10-21T02:29:45.470Z,486.33
2022-10-21T02:32:30.892Z,464.20
2022-10-21T02:35:24.083Z,459.02
2022-10-21T02:38:00.941Z,442.77
2022-10-21T02:40:34.518Z,448.33
2022-10-21T02:43:10.206Z,417.30
2022-10-21T02:45:39.454Z,407.40
2022-10-21T02:48:11.382Z,416.98
2022-10-21T02:50:41.100Z,427.67
2022-10-21T02:53:13.214Z,427.95
2022-10-21T02:58:11.074Z,384.48
2022-10-21T03:00:39.230Z,379.23
2022-10-21T03:03:10.046Z,373.88
2022-10-21T03:05:38.241Z,408.52
2022-10-21T03:08:08.250Z,378.45
2022-10-21T03:10:37.792Z,367.50
2022-10-21T03:13:07.207Z,351.40
2022-10-21T03:15:36.867Z,349.88
2022-10-21T03:18:06.289Z,359.10
2022-10-21T03:20:37.150Z,321.02
2022-10-21T03:23:05.350Z,335.95
2022-10-21T03:25:35.780Z,373.80
2022-10-21T03:28:05.334Z,360.52
2022-10-21T03:30:34.725Z,394.33
2022-10-21T03:33:03.230Z,394.08
2022-10-21T03:35:32.601Z,422.60
2022-10-21T03:38:04.592Z,420.73
2022-10-21T03:40:33.030Z,445.75
2022-10-21T03:43:03.975Z,464.13
2022-10-21T03:45:33.286Z,503.35
2022-10-21T03:48:02.667Z,520.50
2022-10-21T03:50:32.402Z,530.67
2022-10-21T03:53:09.884Z,506.25
2022-10-21T03:55:43.577Z,517.95
2022-10-21T03:58:11.718Z,458.65
2022-10-21T04:00:41.083Z,439.40
2022-10-21T04:03:10.587Z,415.10
2022-10-21T04:05:39.077Z,477.23
2022-10-21T04:08:07.290Z,475.77
2022-10-21T04:10:36.674Z,503.98
2022-10-21T04:13:07.401Z,472.45
2022-10-21T04:15:35.993Z,472.90
2022-10-21T04:18:07.592Z,420.23
2022-10-21T04:20:36.918Z,445.73
2022-10-21T04:23:05.103Z,436.75
2022-10-21T04:25:34.932Z,450.15
2022-10-21T04:28:04.285Z,432.95
2022-10-21T04:30:34.975Z,492.45
2022-10-21T04:33:03.778Z,478.70
2022-10-21T04:35:32.164Z,474.13
2022-10-21T04:38:01.075Z,474.98
2022-10-21T04:40:30.413Z,467.35
2022-10-21T04:43:01.271Z,428.42
2022-10-21T04:45:29.426Z,442.15
2022-10-21T04:47:59.033Z,441.85
2022-10-21T04:50:27.179Z,490.98
2022-10-21T04:52:55.440Z,564.95
2022-10-21T04:55:23.641Z,556.97
2022-10-21T04:57:53.003Z,470.65
2022-10-21T05:00:22.988Z,485.45
2022-10-21T05:02:53.888Z,473.00
2022-10-21T05:05:24.569Z,484.55
2022-10-21T05:07:54.071Z,461.45
2022-10-21T05:10:23.800Z,508.60
2022-10-21T05:12:53.708Z,462.67
2022-10-21T05:15:22.770Z,488.90
2022-10-21T05:17:53.871Z,511.15
2022-10-21T05:20:24.536Z,551.90
2022-10-21T05:22:53.952Z,588.35
2022-10-21T05:25:23.623Z,483.75
2022-10-21T05:27:53.455Z,478.33
2022-10-21T05:30:21.640Z,472.92
2022-10-21T05:32:49.839Z,518.20
2022-10-21T05:35:18.287Z,497.88
2022-10-21T05:37:49.039Z,500.38
2022-10-21T05:40:18.895Z,495.58
2022-10-21T05:42:49.494Z,510.10
2022-10-21T05:45:17.835Z,480.88
2022-10-21T05:47:47.241Z,474.52
2022-10-21T05:50:16.841Z,489.25
2022-10-21T05:52:46.463Z,482.48
2022-10-21T05:55:17.294Z,509.60
2022-10-21T05:57:47.038Z,456.77
2022-10-21T06:00:16.921Z,465.30
2022-10-21T06:02:46.308Z,491.33
2022-10-21T06:05:14.595Z,491.65
2022-10-21T06:07:43.997Z,504.17
2022-10-21T06:10:13.551Z,557.92
2022-10-21T06:12:43.374Z,549.42
2022-10-21T06:15:12.179Z,618.45
2022-10-21T06:17:41.714Z,581.47
2022-10-21T06:20:10.815Z,642.47
2022-10-21T06:22:40.360Z,637.03
2022-10-21T06:25:10.252Z,627.88
2022-10-21T06:27:40.349Z,624.08
2022-10-21T06:30:12.318Z,610.15
2022-10-21T06:32:41.738Z,542.58
2022-10-21T06:35:10.218Z,625.47
2022-10-21T06:37:39.842Z,661.85
2022-10-21T06:40:10.780Z,669.03
2022-10-21T06:42:40.469Z,496.25
2022-10-21T06:45:12.094Z,532.05
2022-10-21T06:47:40.596Z,580.63
2022-10-21T06:50:09.710Z,590.45
2022-10-21T06:52:40.269Z,644.67
2022-10-21T06:55:09.339Z,569.28
2022-10-21T06:57:37.941Z,574.35
2022-10-21T07:00:08.003Z,547.80
2022-10-21T07:02:37.760Z,531.78
2022-10-21T07:05:07.155Z,561.65
2022-10-21T07:07:35.868Z,533.92
2022-10-21T07:10:04.652Z,485.52
2022-10-21T07:12:34.180Z,478.05
2022-10-21T07:15:03.893Z,450.30
2022-10-21T07:17:32.085Z,416.38
2022-10-21T07:20:02.858Z,444.13
2022-10-21T07:22:33.066Z,439.70
2022-10-21T07:25:02.565Z,396.48
2022-10-21T07:27:30.793Z,395.50
2022-10-21T07:30:00.205Z,407.40
2022-10-21T07:32:29.769Z,408.98
2022-10-21T07:34:59.110Z,391.98
2022-10-21T07:37:31.111Z,379.65
2022-10-21T07:39:59.502Z,407.08
2022-10-21T07:42:30.723Z,395.50
2022-10-21T07:45:01.698Z,377.33
2022-10-21T07:47:31.112Z,378.27
2022-10-21T07:50:00.770Z,362.13
2022-10-21T07:52:31.677Z,355.95
2022-10-21T07:55:02.921Z,387.27
2022-10-21T07:57:33.863Z,362.35
2022-10-21T08:00:02.028Z,367.58
2022-10-21T08:02:31.455Z,377.13
2022-10-21T08:05:01.153Z,402.00
2022-10-21T08:07:32.291Z,389.65
2022-10-21T08:10:00.719Z,417.15
2022-10-21T08:12:28.849Z,424.48
2022-10-21T08:14:58.327Z,422.20
2022-10-21T08:17:28.117Z,389.80
2022-10-21T08:19:56.933Z,390.17
2022-10-21T08:22:26.299Z,364.77
2022-10-21T08:24:57.120Z,391.58
2022-10-21T08:27:25.272Z,457.48
2022-10-21T08:29:54.626Z,429.00
2022-10-21T08:32:24.104Z,414.00
2022-10-21T08:34:53.454Z,402.90
2022-10-21T08:37:25.528Z,459.67
2022-10-21T08:39:55.550Z,415.90
2022-10-21T08:42:25.698Z,411.77
2022-10-21T08:45:00.663Z,379.05
2022-10-21T08:47:36.982Z,368.15
2022-10-21T08:50:12.147Z,401.10
2022-10-21T08:52:46.026Z,401.20
2022-10-21T08:55:20.616Z,399.33
2022-10-21T08:57:54.662Z,401.27
2022-10-21T09:00:26.319Z,413.65
2022-10-21T09:03:19.338Z,392.52
2022-10-21T09:06:24.606Z,378.77
2022-10-21T09:09:18.466Z,351.52
2022-10-21T09:12:08.987Z,348.67
2022-10-21T09:15:08.817Z,358.67
2022-10-21T09:18:08.471Z,384.63
2022-10-21T09:20:56.618Z,333.48
2022-10-21T09:23:54.398Z,307.42
2022-10-21T09:26:36.429Z,312.23
2022-10-21T09:29:28.007Z,332.23
2022-10-21T09:32:14.804Z,339.83
2022-10-21T09:34:51.377Z,311.17
2022-10-21T09:37:31.783Z,316.15
2022-10-21T09:40:16.091Z,341.63
2022-10-21T09:42:48.111Z,341.23
2022-10-21T09:45:26.963Z,297.48
2022-10-21T09:48:02.309Z,297.20
2022-10-21T09:50:35.097Z,274.88
2022-10-21T09:53:11.421Z,287.60
2022-10-21T09:55:41.320Z,300.13
2022-10-21T09:58:25.446Z,302.63
2022-10-21T10:00:55.888Z,311.85
2022-10-21T10:03:40.307Z,311.55
2022-10-21T10:06:10.253Z,325.25
2022-10-21T10:08:42.293Z,309.17
2022-10-21T10:11:18.099Z,310.80
2022-10-21T10:13:49.993Z,325.65
2022-10-21T10:19:19.026Z,360.58
2022-10-21T10:22:10.294Z,335.23
2022-10-21T10:24:41.845Z,325.75
2022-10-21T10:27:20.629Z,314.10
2022-10-21T10:29:55.030Z,317.40
2022-10-21T10:32:27.582Z,325.40
2022-10-21T10:35:04.329Z,348.50
2022-10-21T10:37:37.917Z,339.02
2022-10-21T10:40:10.636Z,363.45
2022-10-21T10:42:46.655Z,362.30
2022-10-21T10:45:21.600Z,338.15
2022-10-21T10:47:57.235Z,358.30
2022-10-21T10:50:49.029Z,389.98
2022-10-21T10:53:35.144Z,393.65
2022-10-21T10:56:24.654Z,389.48
2022-10-21T10:58:59.745Z,361.73
2022-10-21T11:01:36.424Z,393.67
2022-10-21T11:04:16.365Z,344.88
2022-10-21T11:06:54.637Z,378.25
2022-10-21T11:09:27.546Z,402.13
2022-10-21T11:14:26.127Z,357.92
2022-10-21T11:17:10.231Z,376.98
2022-10-21T11:19:51.775Z,366.52
2022-10-21T11:22:36.149Z,357.17
2022-10-21T11:25:21.150Z,403.67
2022-10-21T11:28:06.368Z,392.75
2022-10-21T11:30:53.010Z,389.75
2022-10-21T11:33:31.998Z,413.17
2022-10-21T11:36:11.126Z,425.35
2022-10-21T11:39:21.467Z,400.25
2022-10-21T11:41:59.426Z,441.92
2022-10-21T11:44:44.195Z,443.67
2022-10-21T11:47:23.434Z,478.85
2022-10-21T11:50:05.955Z,454.45
2022-10-21T11:52:47.716Z,462.90
2022-10-21T11:55:39.915Z,430.92
2022-10-21T11:58:26.837Z,455.88
2022-10-21T12:01:24.104Z,415.52
2022-10-21T12:04:39.008Z,464.90
2022-10-21T12:07:32.505Z,462.80
2022-10-21T12:10:07.300Z,475.25
2022-10-21T12:12:46.182Z,498.90
2022-10-21T12:15:21.515Z,462.55
2022-10-21T12:17:50.808Z,491.23
2022-10-21T12:20:24.344Z,458.73
2022-10-21T12:23:02.172Z,458.63
2022-10-21T12:25:39.036Z,447.98
2022-10-21T12:28:19.240Z,444.25
2022-10-21T12:30:56.788Z,407.40
2022-10-21T12:33:40.215Z,320.30
2022-10-21T12:38:50.910Z,322.15
2022-10-21T12:41:34.398Z,323.55
2022-10-21T12:44:18.192Z,314.65
2022-10-21T12:46:50.973Z,335.23
2022-10-21T12:49:26.955Z,335.15
2022-10-21T12:52:04.193Z,371.98
2022-10-21T12:54:44.235Z,342.83
2022-10-21T12:57:28.267Z,391.00
2022-10-21T13:00:45.256Z,362.73
2022-10-21T13:03:20.671Z,374.65
2022-10-21T13:06:07.267Z,383.42
2022-10-21T13:08:52.594Z,408.23
2022-10-21T13:11:40.296Z,425.77
2022-10-21T13:14:35.456Z,432.55
2022-10-21T13:17:49.911Z,428.23
2022-10-21T13:20:50.823Z,433.80
2022-10-21T13:23:48.067Z,472.63
2022-10-21T13:26:25.117Z,496.40
2022-10-21T13:29:05.373Z,323.40
2022-10-21T13:31:35.331Z,399.75
2022-10-21T13:34:27.060Z,341.10
2022-10-21T13:36:55.740Z,408.85
2022-10-21T13:39:31.040Z,411.00
2022-10-21T13:42:05.372Z,442.10
2022-10-21T13:44:39.251Z,442.70
2022-10-21T13:47:27.963Z,377.75
2022-10-21T13:50:09.984Z,308.67
2022-10-21T13:52:39.790Z,303.10
2022-10-21T13:55:17.979Z,318.25
2022-10-21T13:57:50.323Z,315.17
2022-10-21T14:00:23.056Z,300.13
2022-10-21T14:02:55.315Z,264.15
2022-10-21T14:05:33.720Z,320.63
2022-10-21T14:08:02.655Z,237.80
2022-10-21T14:10:33.936Z,343.85
2022-10-21T14:13:02.497Z,335.33
2022-10-21T14:15:41.391Z,331.42
2022-10-21T14:18:36.424Z,320.83
2022-10-21T14:21:14.939Z,300.85
2022-10-21T14:23:48.089Z,273.20
2022-10-21T14:26:16.849Z,346.77
2022-10-21T14:28:48.215Z,399.58
2022-10-21T14:31:19.364Z,263.20
2022-10-21T14:33:49.785Z,315.13
2022-10-21T14:36:23.536Z,332.55
2022-10-21T14:39:01.705Z,340.10
2022-10-21T14:41:33.482Z,345.60
2022-10-21T14:44:11.039Z,369.75
2022-10-21T14:46:46.682Z,363.67
2022-10-21T14:49:24.604Z,376.55
2022-10-21T14:52:00.214Z,397.58
2022-10-21T14:54:39.087Z,396.27
2022-10-21T14:57:39.133Z,419.50
2022-10-21T15:00:20.521Z,423.33
2022-10-21T15:02:49.819Z,386.73
2022-10-21T15:05:37.951Z,399.13
2022-10-21T15:08:32.556Z,414.40
2022-10-21T15:11:24.429Z,407.85
2022-10-21T15:14:10.673Z,367.00
2022-10-21T15:16:48.313Z,362.35
2022-10-21T15:19:21.400Z,364.00
2022-10-21T15:21:54.020Z,374.38
2022-10-21T15:24:32.256Z,370.95
2022-10-21T15:27:02.302Z,417.58
2022-10-21T15:29:39.146Z,393.13
2022-10-21T15:32:07.740Z,414.20
2022-10-21T15:34:37.203Z,390.23
2022-10-21T15:37:07.318Z,400.25
2022-10-21T15:39:38.167Z,427.95
2022-10-21T15:42:07.603Z,447.23
2022-10-21T15:44:36.221Z,452.33
2022-10-21T15:47:11.140Z,491.70
2022-10-21T15:49:43.443Z,433.90
2022-10-21T15:52:11.686Z,457.60
2022-10-21T15:54:43.928Z,466.08
2022-10-21T15:57:18.927Z,487.13
2022-10-21T15:59:49.113Z,501.13
2022-10-21T16:02:18.522Z,529.13
2022-10-21T16:04:47.148Z,514.45
2022-10-21T16:07:21.677Z,505.52
2022-10-21T16:09:52.652Z,450.75
2022-10-21T16:12:23.190Z,460.63
2022-10-21T16:14:52.587Z,447.80
2022-10-21T16:17:21.417Z,432.27
2022-10-21T16:19:49.669Z,441.45
2022-10-21T16:22:23.623Z,480.83
2022-10-21T16:24:53.233Z,455.55
2022-10-21T16:27:26.595Z,525.40
2022-10-21T16:30:01.239Z,485.05
2022-10-21T16:32:29.421Z,496.58
2022-10-21T16:34:59.078Z,488.60
2022-10-21T16:37:29.457Z,498.70
2022-10-21T16:40:01.416Z,542.15
2022-10-21T16:42:29.986Z,579.95
2022-10-21T16:45:00.574Z,510.30
2022-10-21T16:47:29.101Z,475.20
2022-10-21T16:50:02.314Z,510.98
2022-10-21T16:52:33.487Z,506.65
2022-10-21T16:55:04.322Z,547.03
2022-10-21T17:00:03.252Z,469.42
2022-10-21T17:02:31.581Z,449.98
2022-10-21T17:05:00.967Z,529.55
2022-10-21T17:07:30.592Z,531.22
2022-10-21T17:09:59.974Z,456.80
2022-10-21T17:12:31.381Z,464.58
2022-10-21T17:15:01.714Z,434.85
2022-10-21T17:17:29.885Z,443.27
2022-10-21T17:19:59.426Z,421.15
2022-10-21T17:22:27.625Z,417.80
2022-10-21T17:24:58.551Z,462.60
2022-10-21T17:27:29.261Z,405.63
2022-10-21T17:29:57.427Z,418.17
2022-10-21T17:32:26.774Z,396.88
2022-10-21T17:34:56.805Z,486.88
2022-10-21T17:37:26.196Z,417.15
2022-10-21T17:39:54.409Z,379.02
2022-10-21T17:42:23.813Z,371.25
2022-10-21T17:44:57.221Z,367.08
2022-10-21T17:47:26.748Z,531.20
2022-10-21T17:49:56.682Z,419.98
2022-10-21T17:52:26.436Z,431.40
2022-10-21T17:54:54.595Z,364.33
2022-10-21T17:57:23.319Z,433.73
2022-10-21T17:59:54.678Z,361.48
2022-10-21T18:02:25.840Z,304.73
2022-10-21T18:04:54.147Z,353.83
2022-10-21T18:07:22.411Z,398.80
2022-10-21T18:09:52.984Z,449.23
2022-10-21T18:12:21.570Z,350.85
2022-10-21T18:14:51.528Z,357.17
2022-10-21T18:17:21.777Z,326.15
2022-10-21T18:19:54.047Z,409.15
2022-10-21T18:22:23.046Z,533.15
2022-10-21T18:24:53.860Z,430.67
2022-10-21T18:27:22.051Z,333.67
2022-10-21T18:29:52.562Z,304.15
2022-10-21T18:32:20.690Z,311.80
2022-10-21T18:34:48.852Z,390.20
2022-10-21T18:37:18.355Z,287.02
2022-10-21T18:39:47.793Z,273.23
2022-10-21T18:42:15.928Z,289.05
2022-10-21T18:44:45.512Z,295.60
2022-10-21T18:47:16.172Z,271.65
2022-10-21T18:49:45.521Z,264.55
2022-10-21T18:52:14.216Z,280.05
2022-10-21T18:54:43.898Z,206.98
2022-10-21T18:57:14.103Z,210.02
2022-10-21T18:59:42.488Z,221.25
2022-10-21T19:02:19.769Z,229.93
2022-10-21T19:04:48.131Z,203.57
2022-10-21T19:07:19.596Z,203.27
2022-10-21T19:09:49.283Z,199.00
2022-10-21T19:12:23.347Z,179.80
2022-10-21T19:14:52.034Z,176.63
2022-10-21T19:17:23.329Z,186.85
2022-10-21T19:19:52.674Z,186.75
2022-10-21T19:22:23.489Z,204.70
2022-10-21T19:24:53.339Z,197.23
2022-10-21T19:27:22.690Z,208.13
2022-10-21T19:29:52.121Z,206.13
2022-10-21T19:32:20.437Z,213.45
2022-10-21T19:34:49.898Z,212.57
2022-10-21T19:37:20.505Z,208.95
2022-10-21T19:39:48.691Z,237.82
2022-10-21T19:42:20.766Z,245.98
2022-10-21T19:47:22.701Z,208.93
2022-10-21T19:49:50.854Z,181.52
2022-10-21T19:52:20.268Z,184.55
2022-10-21T19:54:52.210Z,190.38
2022-10-21T19:57:22.942Z,198.07
2022-10-21T19:59:51.267Z,199.27
2022-10-21T20:02:21.855Z,202.32
2022-10-21T20:04:49.990Z,204.13
2022-10-21T20:07:19.349Z,195.57
2022-10-21T20:09:47.985Z,192.02
2022-10-21T20:12:16.288Z,191.77
2022-10-21T20:14:47.033Z,199.82
2022-10-21T20:17:18.435Z,208.95
2022-10-21T20:19:48.616Z,198.80
2022-10-21T20:22:17.339Z,197.38
2022-10-21T20:24:46.395Z,198.15
2022-10-21T20:27:14.859Z,211.15
2022-10-21T20:29:44.403Z,210.65
2022-10-21T20:32:13.978Z,209.27
2022-10-21T20:34:44.055Z,218.73
2022-10-21T20:37:13.373Z,210.68
2022-10-21T20:39:42.856Z,196.30
2022-10-21T20:42:11.129Z,217.60
2022-10-21T20:44:40.546Z,209.88
2022-10-21T20:47:08.721Z,207.20
2022-10-21T20:49:39.671Z,211.82
2022-10-21T20:52:07.834Z,199.52
2022-10-21T20:54:36.120Z,216.75
2022-10-21T20:57:05.635Z,220.00
2022-10-21T20:59:33.788Z,208.73
2022-10-21T21:02:03.220Z,214.38
2022-10-21T21:04:32.906Z,224.88
2022-10-21T21:07:04.791Z,234.55
2022-10-21T21:09:50.681Z,227.10
2022-10-21T21:12:21.076Z,211.02
2022-10-21T21:14:49.173Z,211.63
2022-10-21T21:17:18.512Z,222.13
2022-10-21T21:19:47.858Z,205.82
2022-10-21T21:22:22.181Z,210.52
2022-10-21T21:24:50.376Z,224.05
2022-10-21T21:27:19.819Z,230.30
2022-10-21T21:29:47.938Z,210.18
2022-10-21T21:32:20.134Z,225.57
2022-10-21T21:34:55.391Z,225.07
2022-10-21T21:37:28.089Z,224.00
2022-10-21T21:39:57.750Z,221.60
2022-10-21T21:42:27.482Z,222.27
2022-10-21T21:44:55.643Z,218.60
2022-10-21T21:47:23.812Z,224.82
2022-10-21T21:49:51.908Z,218.75
2022-10-21T21:52:20.060Z,240.30
2022-10-21T21:54:54.363Z,215.02
2022-10-21T21:57:27.735Z,224.13
2022-10-21T21:59:56.411Z,238.27
2022-10-21T22:02:25.749Z,235.30
2022-10-21T22:04:55.458Z,238.90
2022-10-21T22:07:26.021Z,237.25
2022-10-21T22:09:56.686Z,256.63
2022-10-21T22:12:26.001Z,253.70
2022-10-21T22:14:54.106Z,266.75
2022-10-21T22:17:24.035Z,258.83
2022-10-21T22:19:54.064Z,257.85
2022-10-21T22:22:23.537Z,263.77
2022-10-21T22:24:51.738Z,253.65
2022-10-21T22:27:22.454Z,252.20
2022-10-21T22:29:50.572Z,249.10
2022-10-21T22:32:20.040Z,250.70
2022-10-21T22:34:49.627Z,240.75
2022-10-21T22:37:19.042Z,243.45
2022-10-21T22:39:48.427Z,243.52
2022-10-21T22:42:18.962Z,238.27
2022-10-21T22:44:49.684Z,249.55
2022-10-21T22:47:17.945Z,252.00
2022-10-21T22:49:47.314Z,253.85
2022-10-21T22:52:16.967Z,252.38
2022-10-21T22:54:50.046Z,269.25
2022-10-21T22:57:19.692Z,263.65
2022-10-21T22:59:53.040Z,281.98
2022-10-21T23:02:22.963Z,277.50
2022-10-21T23:04:52.359Z,277.75
2022-10-21T23:07:21.799Z,269.55
2022-10-21T23:09:51.337Z,275.75
2022-10-21T23:12:19.486Z,281.80
2022-10-21T23:14:48.981Z,278.40
2022-10-21T23:17:18.390Z,279.48
2022-10-21T23:19:46.979Z,283.20
2022-10-21T23:22:15.473Z,289.75
2022-10-21T23:24:44.868Z,295.75
2022-10-21T23:27:14.569Z,306.00
2022-10-21T23:29:42.725Z,314.63
2022-10-21T23:32:14.671Z,322.23
2022-10-21T23:34:42.778Z,328.65
2022-10-21T23:37:11.067Z,309.90
2022-10-21T23:39:39.822Z,306.52
2022-10-21T23:42:07.976Z,310.33
2022-10-21T23:44:37.336Z,317.67
2022-10-21T23:47:07.120Z,316.30
2022-10-21T23:49:37.852Z,302.42
2022-10-21T23:52:08.483Z,314.33
2022-10-21T23:54:37.974Z,325.35
2022-10-21T23:57:07.772Z,336.10
2022-10-21T23:59:36.503Z,328.70
